Terminal Aerodrome Forecast
Issued by NWS Cleveland, OH

Home | Current Version | Previous Version | Graphics & Text | Print | Product List | Glossary Off
Versions: 1 2 3 4 5 6 7 8 9 10 11 12 13 14 15 16 17 18 19 20 21

000
FTUS41 KCLE 180540
TAFYNG
TAF
KYNG 180540Z 1806/1906 20005KT 6SM BR OVC030
     FM180900 21006KT P6SM OVC035
     FM181400 21007KT 6SM BR VCSH OVC010
      TEMPO 1815/1819 3SM -SHRA BR OVC007
     FM181900 22008KT 6SM BR OVC007=

USA.gov is the U.S. government's official web portal to all federal, state and local government web resources and services.